Time;durP1;ratioP1;P1;durP2;ratioP2;P2;SDS_P1;SDS_P2;PMS_P1;PMS_P2;Temp;Humidity;BMP_temperature;BMP_pressure;BME280_temperature;BME280_humidity;BME280_pressure;Samples;Min_cycle;Max_cycle;Signal;HPM_P1;HPM_P2
2021/06/27 00:02:48;;;;;;;1999.90;999.90;;;11.50;99.90;;;;;;6039576;23;20372;-64
2021/06/27 00:05:43;;;;;;;1999.90;999.90;;;11.50;99.90;;;;;;5951090;24;20200;-65
2021/06/27 00:08:16;;;;;;;1999.90;999.90;;;11.40;99.90;;;;;;5991669;23;20156;-58
2021/06/27 00:10:58;;;;;;;1999.90;999.90;;;11.40;99.90;;;;;;6063675;23;20160;-51
2021/06/27 00:13:36;;;;;;;1999.90;999.90;;;11.30;99.90;;;;;;6041117;23;20184;-54
2021/06/27 00:16:04;;;;;;;1999.90;999.90;;;11.20;99.90;;;;;;6066309;23;20156;-50
2021/06/27 00:18:32;;;;;;;1999.90;999.90;;;11.00;99.90;;;;;;6067223;23;20149;-50
2021/06/27 00:21:01;;;;;;;1999.90;999.90;;;10.90;99.90;;;;;;6066793;23;20152;-50
2021/06/27 00:23:31;;;;;;;1999.90;999.90;;;10.90;99.90;;;;;;6067044;23;20168;-56
2021/06/27 00:26:00;;;;;;;1999.90;999.90;;;11.10;99.90;;;;;;6066804;23;20616;-49
2021/06/27 00:28:27;;;;;;;1999.90;999.90;;;11.10;99.90;;;;;;6066677;23;20163;-54
2021/06/27 00:30:54;;;;;;;1999.90;999.90;;;11.10;99.90;;;;;;6066663;23;20153;-51
2021/06/27 00:33:22;;;;;;;1999.90;999.90;;;11.00;99.90;;;;;;6066730;23;20180;-52
2021/06/27 00:35:50;;;;;;;1999.90;999.90;;;11.00;99.90;;;;;;6066417;23;20599;-66
2021/06/27 00:38:17;;;;;;;1999.90;999.90;;;11.00;99.90;;;;;;6067048;23;20781;-65
2021/06/27 00:40:44;;;;;;;1999.90;999.90;;;11.00;99.90;;;;;;6066586;23;20144;-49
2021/06/27 00:43:11;;;;;;;1999.90;999.90;;;11.00;99.90;;;;;;6066336;23;20179;-64
2021/06/27 00:45:38;;;;;;;1999.90;999.90;;;10.90;99.90;;;;;;6066998;23;20473;-50
2021/06/27 00:48:07;;;;;;;1999.90;999.90;;;10.90;99.90;;;;;;6066419;23;20180;-52
2021/06/27 00:50:41;;;;;;;1999.90;999.90;;;10.90;99.90;;;;;;6066518;23;20152;-49
2021/06/27 00:53:08;;;;;;;1999.90;999.90;;;10.90;99.90;;;;;;6066873;23;20164;-54
2021/06/27 00:55:36;;;;;;;1999.90;999.90;;;10.90;99.90;;;;;;6066304;23;20149;-52
2021/06/27 00:58:03;;;;;;;1999.90;999.90;;;10.90;99.90;;;;;;6066784;23;20144;-66
2021/06/27 01:00:36;;;;;;;1999.90;999.90;;;10.80;99.90;;;;;;6066647;23;20171;-50
2021/06/27 01:03:03;;;;;;;1999.90;999.90;;;10.80;99.90;;;;;;6066739;23;20167;-54
2021/06/27 01:05:36;;;;;;;1999.90;999.90;;;10.80;99.90;;;;;;6066708;23;20224;-50
2021/06/27 01:08:03;;;;;;;1999.90;999.90;;;10.80;99.90;;;;;;6066851;23;20148;-56
2021/06/27 01:10:30;;;;;;;1999.90;999.90;;;10.80;99.90;;;;;;6066643;23;20156;-50
2021/06/27 01:12:57;;;;;;;1999.90;999.90;;;10.80;99.90;;;;;;6066574;23;20172;-56
2021/06/27 01:15:24;;;;;;;1999.90;999.90;;;10.70;99.90;;;;;;6066507;23;20163;-49
2021/06/27 01:17:54;;;;;;;1999.90;999.90;;;10.70;99.90;;;;;;6066131;23;20156;-64
2021/06/27 01:20:26;;;;;;;1999.90;999.90;;;10.70;99.90;;;;;;6068354;23;20160;-51
2021/06/27 01:22:54;;;;;;;1999.90;999.90;;;10.70;99.90;;;;;;6068193;23;20155;-63
2021/06/27 01:25:26;;;;;;;1999.90;999.90;;;10.70;99.90;;;;;;6067908;23;20678;-49
2021/06/27 01:27:54;;;;;;;1999.90;999.90;;;10.70;99.90;;;;;;6069003;23;20474;-53
2021/06/27 01:30:22;;;;;;;1999.90;999.90;;;10.80;99.90;;;;;;6068216;23;20167;-51
2021/06/27 01:32:50;;;;;;;1999.90;999.90;;;10.80;99.90;;;;;;6068245;23;20180;-53
2021/06/27 01:35:20;;;;;;;1999.90;999.90;;;10.80;99.90;;;;;;6068412;23;20239;-52
2021/06/27 01:37:48;;;;;;;1999.90;999.90;;;10.80;99.90;;;;;;6068253;23;20540;-61
2021/06/27 01:40:17;;;;;;;1999.90;999.90;;;10.70;99.90;;;;;;6068340;23;20155;-65
2021/06/27 01:42:45;;;;;;;1999.90;999.90;;;10.70;99.90;;;;;;6068398;23;20149;-51
2021/06/27 01:45:16;;;;;;;1999.90;999.90;;;10.60;99.90;;;;;;6067990;23;20576;-65
2021/06/27 01:47:43;;;;;;;1999.90;999.90;;;10.60;99.90;;;;;;6068644;23;20153;-52
2021/06/27 01:50:12;;;;;;;1999.90;999.90;;;10.60;99.90;;;;;;6068073;23;20576;-50
2021/06/27 01:52:39;;;;;;;1999.90;999.90;;;10.50;99.90;;;;;;6067876;23;20159;-51
2021/06/27 01:55:07;;;;;;;1999.90;999.90;;;10.40;99.90;;;;;;6068734;23;20227;-51
2021/06/27 01:57:34;;;;;;;1999.90;999.90;;;10.40;99.90;;;;;;6067935;23;20168;-57
2021/06/27 02:00:02;;;;;;;1999.90;999.90;;;10.30;99.90;;;;;;6068785;23;20245;-51
2021/06/27 02:02:29;;;;;;;1999.90;999.90;;;10.20;99.90;;;;;;6068253;23;20160;-50
2021/06/27 02:04:56;;;;;;;1999.90;999.90;;;10.10;99.90;;;;;;6067905;23;20152;-54
2021/06/27 02:07:23;;;;;;;1999.90;999.90;;;10.10;99.90;;;;;;6068098;23;20155;-64
2021/06/27 02:09:49;;;;;;;1999.90;999.90;;;10.10;99.90;;;;;;6068088;23;20357;-51
2021/06/27 02:12:16;;;;;;;1999.90;999.90;;;10.10;99.90;;;;;;6067937;23;20508;-54
2021/06/27 02:14:43;;;;;;;1999.90;999.90;;;10.00;99.90;;;;;;6067997;23;20180;-66
2021/06/27 02:17:10;;;;;;;1999.90;999.90;;;10.00;99.90;;;;;;6068337;23;20152;-55
2021/06/27 02:19:38;;;;;;;1999.90;999.90;;;9.90;99.90;;;;;;6042378;23;20164;-55
2021/06/27 02:22:05;;;;;;;1999.90;999.90;;;9.90;99.90;;;;;;6068192;23;20591;-54
2021/06/27 02:24:33;;;;;;;1999.90;999.90;;;9.70;99.90;;;;;;6067749;23;20203;-50
2021/06/27 02:27:00;;;;;;;1999.90;999.90;;;9.70;99.90;;;;;;6067561;23;20172;-53
2021/06/27 02:29:27;;;;;;;1999.90;999.90;;;9.70;99.90;;;;;;6068316;23;20152;-52
2021/06/27 02:31:54;;;;;;;1999.90;999.90;;;9.60;99.90;;;;;;6067451;23;20160;-64
2021/06/27 02:34:21;;;;;;;1999.90;999.90;;;9.50;99.90;;;;;;6067472;23;20181;-53
2021/06/27 02:36:48;;;;;;;1999.90;999.90;;;9.50;99.90;;;;;;6068055;23;20152;-54
2021/06/27 02:39:15;;;;;;;1999.90;999.90;;;9.50;99.90;;;;;;6067756;23;20208;-65
2021/06/27 02:41:42;;;;;;;1999.90;999.90;;;9.50;99.90;;;;;;6067564;23;20236;-65
2021/06/27 02:44:09;;;;;;;1999.90;999.90;;;9.40;99.90;;;;;;6067972;23;20489;-62
2021/06/27 02:46:37;;;;;;;1999.90;999.90;;;9.40;99.90;;;;;;6067522;23;20178;-52
2021/06/27 02:49:05;;;;;;;1999.90;999.90;;;9.40;99.90;;;;;;6068105;23;20231;-60
2021/06/27 02:51:31;;;;;;;1999.90;999.90;;;9.30;99.90;;;;;;6067758;23;20152;-52
2021/06/27 02:53:58;;;;;;;1999.90;999.90;;;9.30;99.90;;;;;;6067522;23;20511;-51
2021/06/27 02:56:26;;;;;;;1999.90;999.90;;;9.20;99.90;;;;;;6067786;23;20156;-61
2021/06/27 02:58:53;;;;;;;1999.90;999.90;;;9.20;99.90;;;;;;6067603;23;20175;-63
2021/06/27 03:01:21;;;;;;;1999.90;999.90;;;9.10;99.90;;;;;;6067460;23;20219;-52
2021/06/27 03:03:52;;;;;;;1999.90;999.90;;;9.10;99.90;;;;;;6067540;23;20224;-51
2021/06/27 03:06:19;;;;;;;1999.90;999.90;;;9.10;99.90;;;;;;6067510;23;20144;-63
2021/06/27 03:08:47;;;;;;;1999.90;999.90;;;9.00;99.90;;;;;;6067198;23;20180;-50
2021/06/27 03:11:14;;;;;;;1999.90;999.90;;;9.00;99.90;;;;;;6067749;23;20157;-60
2021/06/27 03:13:42;;;;;;;1999.90;999.90;;;9.00;99.90;;;;;;6067062;23;20502;-51
2021/06/27 03:16:10;;;;;;;1999.90;999.90;;;9.10;99.90;;;;;;6067326;23;20145;-60
2021/06/27 03:18:38;;;;;;;1999.90;999.90;;;9.00;99.90;;;;;;6067887;23;20576;-50
2021/06/27 03:21:05;;;;;;;1999.90;999.90;;;9.00;99.90;;;;;;6067351;23;20156;-52
2021/06/27 03:23:32;;;;;;;1999.90;999.90;;;8.90;99.90;;;;;;6067286;23;20242;-58
2021/06/27 03:25:59;;;;;;;1999.90;999.90;;;8.90;99.90;;;;;;6067292;23;20670;-64
2021/06/27 03:28:27;;;;;;;1999.90;999.90;;;8.90;99.90;;;;;;6067205;23;20559;-52
2021/06/27 03:30:54;;;;;;;1999.90;999.90;;;8.90;99.90;;;;;;6067158;23;20489;-57
2021/06/27 03:33:21;;;;;;;1999.90;999.90;;;8.90;99.90;;;;;;6067199;23;20188;-54
2021/06/27 03:35:48;;;;;;;1999.90;999.90;;;8.90;99.90;;;;;;6067059;23;20153;-53
2021/06/27 03:40:50;;;;;;;1999.90;999.90;;;8.80;99.90;;;;;;6076854;23;20293;-50
2021/06/27 03:43:18;;;;;;;1999.90;999.90;;;8.90;99.90;;;;;;6066875;23;20164;-53
2021/06/27 03:45:45;;;;;;;1999.90;999.90;;;8.80;99.90;;;;;;6067543;23;20724;-53
2021/06/27 03:48:12;;;;;;;1999.90;999.90;;;8.80;99.90;;;;;;6066892;23;20161;-64
2021/06/27 03:50:39;;;;;;;1999.90;999.90;;;8.70;99.90;;;;;;6067056;23;20156;-52
2021/06/27 03:53:06;;;;;;;1999.90;999.90;;;8.60;99.90;;;;;;6067620;23;20624;-50
2021/06/27 03:55:33;;;;;;;1999.90;999.90;;;8.60;99.90;;;;;;6066823;23;20569;-54
2021/06/27 03:57:59;;;;;;;1999.90;999.90;;;8.60;99.90;;;;;;6066950;23;20223;-55
2021/06/27 04:00:26;;;;;;;1999.90;999.90;;;8.60;99.90;;;;;;6067197;23;20152;-63
2021/06/27 04:02:53;;;;;;;1999.90;999.90;;;8.60;99.90;;;;;;6066781;23;20159;-61
2021/06/27 04:05:19;;;;;;;1999.90;999.90;;;8.60;99.90;;;;;;6067039;23;20567;-63
2021/06/27 04:07:46;;;;;;;1999.90;999.90;;;8.60;99.90;;;;;;6041535;23;20510;-60
2021/06/27 04:10:13;;;;;;;1999.90;999.90;;;8.60;99.90;;;;;;6066907;23;20589;-58
2021/06/27 04:12:40;;;;;;;1999.90;999.90;;;8.60;99.90;;;;;;6066938;23;20147;-64
2021/06/27 04:15:08;;;;;;;1999.90;999.90;;;8.50;99.90;;;;;;6067793;23;20187;-59
2021/06/27 04:17:36;;;;;;;1999.90;999.90;;;8.50;99.90;;;;;;6067045;23;20647;-50
2021/06/27 04:20:06;;;;;;;1999.90;999.90;;;8.50;99.90;;;;;;6066978;23;20256;-64
2021/06/27 04:22:33;;;;;;;1999.90;999.90;;;8.30;99.90;;;;;;6066679;23;20531;-53
2021/06/27 04:25:01;;;;;;;1999.90;999.90;;;8.30;99.90;;;;;;6066212;23;20243;-65
2021/06/27 04:27:29;;;;;;;1999.90;999.90;;;8.30;99.90;;;;;;6067395;23;20163;-53
2021/06/27 04:29:56;;;;;;;1999.90;999.90;;;8.30;99.90;;;;;;6066318;23;20175;-60
2021/06/27 04:32:22;;;;;;;1999.90;999.90;;;8.30;99.90;;;;;;6066602;23;20172;-64
2021/06/27 04:34:49;;;;;;;1999.90;999.90;;;8.30;99.90;;;;;;6066912;23;20180;-56
2021/06/27 04:37:16;;;;;;;1999.90;999.90;;;8.30;99.90;;;;;;6066345;23;20160;-54
2021/06/27 04:39:43;;;;;;;1999.90;999.90;;;8.30;99.90;;;;;;6066401;23;20254;-52
2021/06/27 04:42:10;;;;;;;1999.90;999.90;;;8.40;99.90;;;;;;6066965;23;20149;-53
2021/06/27 04:44:36;;;;;;;1999.90;999.90;;;8.40;99.90;;;;;;6066601;23;20588;-61
2021/06/27 04:47:03;;;;;;;1999.90;999.90;;;8.40;99.90;;;;;;6066675;23;20152;-50
2021/06/27 04:49:30;;;;;;;1999.90;999.90;;;8.50;99.90;;;;;;6066736;23;20162;-54
2021/06/27 04:51:57;;;;;;;1999.90;999.90;;;8.50;99.90;;;;;;6066597;23;20498;-53
2021/06/27 04:54:24;;;;;;;1999.90;999.90;;;8.60;99.90;;;;;;6066363;23;20181;-66
2021/06/27 04:56:50;;;;;;;1999.90;999.90;;;8.60;99.90;;;;;;6066677;23;20576;-64
2021/06/27 04:59:17;;;;;;;1999.90;999.90;;;8.60;99.90;;;;;;6066527;23;20159;-54
2021/06/27 05:01:44;;;;;;;1999.90;999.90;;;8.70;99.90;;;;;;6066773;23;20483;-54
2021/06/27 05:04:11;;;;;;;1999.90;999.90;;;8.70;99.90;;;;;;6066816;23;20232;-50
2021/06/27 05:06:37;;;;;;;1999.90;999.90;;;8.70;99.90;;;;;;6066269;23;20583;-55
2021/06/27 05:09:04;;;;;;;1999.90;999.90;;;8.70;99.90;;;;;;6067048;23;20156;-50
2021/06/27 05:11:31;;;;;;;1999.90;999.90;;;8.70;99.90;;;;;;6066384;23;20236;-58
2021/06/27 05:13:58;;;;;;;1999.90;999.90;;;8.70;99.90;;;;;;6066269;23;20329;-51
2021/06/27 05:16:24;;;;;;;1999.90;999.90;;;8.70;99.90;;;;;;6066922;23;20577;-50
2021/06/27 05:18:51;;;;;;;1999.90;999.90;;;8.70;99.90;;;;;;6065315;23;20204;-66
2021/06/27 05:21:18;;;;;;;1999.90;999.90;;;8.80;99.90;;;;;;6066600;23;20628;-65
2021/06/27 05:23:45;;;;;;;1999.90;999.90;;;8.80;99.90;;;;;;6066565;23;20227;-58
2021/06/27 05:26:11;;;;;;;1999.90;999.90;;;8.80;99.90;;;;;;6066547;23;20153;-64
2021/06/27 05:28:38;;;;;;;1999.90;999.90;;;8.80;99.90;;;;;;6066281;23;20149;-65
2021/06/27 05:31:05;;;;;;;1999.90;999.90;;;8.80;99.90;;;;;;6066397;23;20155;-65
2021/06/27 05:33:32;;;;;;;1999.90;999.90;;;8.80;99.90;;;;;;6066293;23;20243;-51
2021/06/27 05:35:58;;;;;;;1999.90;999.90;;;8.70;99.90;;;;;;6066197;23;20149;-54
2021/06/27 05:38:25;;;;;;;1999.90;999.90;;;8.70;99.90;;;;;;6066590;23;20176;-51
2021/06/27 05:40:53;;;;;;;1999.90;999.90;;;8.70;99.90;;;;;;6066111;23;20157;-64
2021/06/27 05:43:19;;;;;;;1999.90;999.90;;;8.70;99.90;;;;;;6066412;23;20194;-59
2021/06/27 05:45:46;;;;;;;1999.90;999.90;;;8.60;99.90;;;;;;6066183;23;20159;-63
2021/06/27 05:48:13;;;;;;;1999.90;999.90;;;8.60;99.90;;;;;;6066244;23;20161;-50
2021/06/27 05:50:40;;;;;;;1999.90;999.90;;;8.60;99.90;;;;;;6066753;23;20231;-50
2021/06/27 05:53:07;;;;;;;1999.90;999.90;;;8.50;99.90;;;;;;6066396;23;20242;-57
2021/06/27 05:55:33;;;;;;;1999.90;999.90;;;8.60;99.90;;;;;;6066003;23;20623;-52
2021/06/27 05:58:00;;;;;;;1999.90;999.90;;;8.60;99.90;;;;;;6066655;23;20230;-55
2021/06/27 06:00:27;;;;;;;1999.90;999.90;;;8.60;99.90;;;;;;6066099;23;20573;-50
2021/06/27 06:02:53;;;;;;;1999.90;999.90;;;8.60;99.90;;;;;;6067573;23;20231;-66
2021/06/27 06:05:20;;;;;;;1999.90;999.90;;;8.70;99.90;;;;;;6067331;23;20152;-64
2021/06/27 06:07:47;;;;;;;1999.90;999.90;;;8.70;99.90;;;;;;6067871;23;20157;-51
2021/06/27 06:10:14;;;;;;;1999.90;999.90;;;8.60;99.90;;;;;;6068361;23;20147;-53
2021/06/27 06:12:41;;;;;;;1999.90;999.90;;;8.70;99.90;;;;;;6068111;23;20445;-66
2021/06/27 06:15:08;;;;;;;1999.90;999.90;;;8.80;99.90;;;;;;6068015;23;20157;-51
2021/06/27 06:17:35;;;;;;;1999.90;999.90;;;8.80;99.90;;;;;;6067958;23;20223;-52
2021/06/27 06:20:01;;;;;;;1999.90;999.90;;;8.80;99.90;;;;;;6067947;23;20152;-67
2021/06/27 06:22:28;;;;;;;1999.90;999.90;;;8.80;99.90;;;;;;6067658;23;20155;-51
2021/06/27 06:24:55;;;;;;;1999.90;999.90;;;8.90;99.90;;;;;;6067694;23;20188;-66
2021/06/27 06:27:22;;;;;;;1999.90;999.90;;;8.90;99.90;;;;;;6067933;23;20287;-55
2021/06/27 06:29:49;;;;;;;1999.90;999.90;;;9.10;99.90;;;;;;6067328;23;20607;-51
2021/06/27 06:32:16;;;;;;;1999.90;999.90;;;9.10;99.90;;;;;;6068299;23;20580;-67
2021/06/27 06:34:43;;;;;;;1999.90;999.90;;;9.20;99.90;;;;;;6067603;23;20176;-52
2021/06/27 06:37:10;;;;;;;1999.90;999.90;;;9.20;99.90;;;;;;6067620;23;20528;-52
2021/06/27 06:39:36;;;;;;;1999.90;999.90;;;9.40;99.90;;;;;;6068183;23;20159;-51
2021/06/27 06:42:03;;;;;;;1999.90;999.90;;;9.40;99.90;;;;;;6067160;23;20204;-54
2021/06/27 06:44:30;;;;;;;1999.90;999.90;;;9.40;99.90;;;;;;6067382;23;20145;-51
2021/06/27 06:46:57;;;;;;;1999.90;999.90;;;9.50;99.90;;;;;;6067698;23;20303;-55
2021/06/27 06:49:23;;;;;;;1999.90;999.90;;;9.50;99.90;;;;;;6067520;23;20192;-67
2021/06/27 06:51:50;;;;;;;1999.90;999.90;;;9.50;99.90;;;;;;6067427;23;20243;-62
2021/06/27 06:54:17;;;;;;;1999.90;999.90;;;9.70;99.90;;;;;;6067463;23;20191;-66
2021/06/27 06:56:44;;;;;;;1999.90;999.90;;;9.80;99.90;;;;;;6067528;23;20148;-66
2021/06/27 06:59:10;;;;;;;1999.90;999.90;;;9.80;99.90;;;;;;6067473;23;20203;-51
2021/06/27 07:01:37;;;;;;;1999.90;999.90;;;9.90;99.90;;;;;;6067537;23;20481;-63
2021/06/27 07:04:04;;;;;;;1999.90;999.90;;;9.90;99.90;;;;;;6067471;23;20152;-64
2021/06/27 07:06:31;;;;;;;1999.90;999.90;;;10.00;99.90;;;;;;6067943;23;20149;-51
2021/06/27 07:08:57;;;;;;;1999.90;999.90;;;10.10;99.90;;;;;;6067366;23;20171;-54
2021/06/27 07:11:24;;;;;;;1999.90;999.90;;;10.20;99.90;;;;;;6067128;23;20483;-66
2021/06/27 07:13:51;;;;;;;1999.90;999.90;;;10.30;99.90;;;;;;6067975;23;20185;-50
2021/06/27 07:16:18;;;;;;;1999.90;999.90;;;10.40;99.90;;;;;;6066938;23;20219;-52
2021/06/27 07:18:44;;;;;;;1999.90;999.90;;;10.50;99.90;;;;;;6067163;23;20148;-49
2021/06/27 07:21:11;;;;;;;1999.90;999.90;;;10.50;99.90;;;;;;6067941;23;20145;-50
2021/06/27 07:23:38;;;;;;;1999.90;999.90;;;10.60;99.90;;;;;;6067013;23;20155;-49
2021/06/27 07:26:05;;;;;;;1999.90;999.90;;;10.60;99.90;;;;;;6067209;23;20627;-54
2021/06/27 07:28:31;;;;;;;1999.90;999.90;;;10.60;99.90;;;;;;6067302;23;20149;-64
2021/06/27 07:30:59;;;;;;;1999.90;999.90;;;10.70;99.90;;;;;;6066996;23;20165;-51
2021/06/27 07:33:26;;;;;;;1999.90;999.90;;;10.80;99.90;;;;;;6066784;23;20188;-62
2021/06/27 07:35:53;;;;;;;1999.90;999.90;;;10.90;99.90;;;;;;6067030;23;20152;-57
2021/06/27 07:38:20;;;;;;;1999.90;999.90;;;11.00;99.90;;;;;;6066967;23;20151;-49
2021/06/27 07:40:47;;;;;;;1999.90;999.90;;;11.00;99.90;;;;;;6066971;23;20153;-54
2021/06/27 07:43:14;;;;;;;1999.90;999.90;;;11.10;99.90;;;;;;6066960;23;20612;-65
2021/06/27 07:45:42;;;;;;;1999.90;999.90;;;11.20;99.90;;;;;;6066596;23;20244;-62
2021/06/27 07:48:09;;;;;;;1999.90;999.90;;;11.30;99.90;;;;;;6066899;23;20153;-65
2021/06/27 07:50:36;;;;;;;1999.90;999.90;;;11.40;99.90;;;;;;6066973;23;20311;-51
2021/06/27 07:53:04;;;;;;;1999.90;999.90;;;11.50;99.90;;;;;;6066565;23;20199;-54
2021/06/27 07:55:32;;;;;;;1999.90;999.90;;;11.50;99.90;;;;;;6067510;23;20153;-51
2021/06/27 07:57:59;;;;;;;1999.90;999.90;;;11.60;99.90;;;;;;6066694;23;20148;-65
2021/06/27 08:00:29;;;;;;;1999.90;999.90;;;11.70;99.90;;;;;;6066624;23;20653;-60
2021/06/27 08:02:57;;;;;;;1999.90;999.90;;;11.70;99.90;;;;;;6066937;23;20160;-52
2021/06/27 08:05:24;;;;;;;1999.90;999.90;;;11.80;99.90;;;;;;6066451;23;20164;-66
2021/06/27 08:07:51;;;;;;;1999.90;999.90;;;11.90;99.90;;;;;;6066619;23;20200;-64
2021/06/27 08:10:18;;;;;;;1999.90;999.90;;;12.00;99.90;;;;;;6066813;23;20481;-52
2021/06/27 08:12:45;;;;;;;1999.90;999.90;;;12.10;99.90;;;;;;6066380;23;20176;-56
2021/06/27 08:15:19;;;;;;;1999.90;999.90;;;12.20;99.90;;;;;;6066838;23;20157;-66
2021/06/27 08:17:48;;;;;;;1999.90;999.90;;;12.30;99.90;;;;;;6066920;23;20459;-54
2021/06/27 08:20:16;;;;;;;1999.90;999.90;;;12.40;99.90;;;;;;6066705;23;20157;-66
2021/06/27 08:22:43;;;;;;;1999.90;999.90;;;12.50;99.90;;;;;;6066513;23;20156;-66
2021/06/27 08:25:11;;;;;;;1999.90;999.90;;;12.70;99.90;;;;;;6066364;23;20192;-66
2021/06/27 08:27:38;;;;;;;1999.90;999.90;;;12.80;99.90;;;;;;6066185;23;20227;-57
2021/06/27 08:30:09;;;;;;;1999.90;999.90;;;12.90;99.90;;;;;;6065853;23;20648;-52
2021/06/27 08:32:43;;;;;;;1999.90;999.90;;;13.00;99.90;;;;;;6066434;23;20144;-52
2021/06/27 08:35:16;;;;;;;1999.90;999.90;;;13.20;99.90;;;;;;6066355;23;20152;-67
2021/06/27 08:37:45;;;;;;;1999.90;999.90;;;13.30;99.90;;;;;;6066886;23;20140;-54
2021/06/27 08:40:14;;;;;;;1999.90;999.90;;;13.40;99.90;;;;;;6066246;23;20156;-50
2021/06/27 08:42:41;;;;;;;1999.90;999.90;;;13.60;99.90;;;;;;6066546;23;20452;-57
2021/06/27 08:45:10;;;;;;;1999.90;999.90;;;13.70;99.90;;;;;;6066193;23;20164;-59
2021/06/27 08:47:38;;;;;;;1999.90;999.90;;;13.80;99.90;;;;;;6065805;23;20155;-53
2021/06/27 08:50:10;;;;;;;1999.90;999.90;;;14.00;99.90;;;;;;6065961;23;20152;-50
2021/06/27 08:52:37;;;;;;;1999.90;999.90;;;14.30;99.90;;;;;;6066081;23;20171;-56
2021/06/27 08:55:06;;;;;;;1999.90;999.90;;;14.50;99.90;;;;;;6065415;23;20218;-60
2021/06/27 08:57:35;;;;;;;1999.90;999.90;;;14.80;99.90;;;;;;6066235;23;20152;-66
2021/06/27 09:00:04;;;;;;;1999.90;999.90;;;15.10;99.90;;;;;;6066136;23;20157;-52
2021/06/27 09:02:31;;;;;;;1999.90;999.90;;;15.20;99.90;;;;;;6065717;23;20585;-57
2021/06/27 09:04:57;;;;;;;1999.90;999.90;;;15.30;99.90;;;;;;6066444;23;20148;-62
2021/06/27 09:07:35;;;;;;;1999.90;999.90;;;15.50;99.90;;;;;;6065721;23;20602;-60
2021/06/27 09:10:17;;;;;;;1999.90;999.90;;;15.50;99.90;;;;;;6065757;23;20151;-52
2021/06/27 09:13:04;;;;;;;1999.90;999.90;;;15.70;99.90;;;;;;6066237;23;20152;-52
2021/06/27 09:15:38;;;;;;;1999.90;999.90;;;15.70;99.90;;;;;;6066028;23;20196;-53
2021/06/27 09:18:26;;;;;;;1999.90;999.90;;;15.80;99.90;;;;;;6040494;23;20581;-69
2021/06/27 09:20:55;;;;;;;1999.90;999.90;;;16.00;99.90;;;;;;6065950;23;20160;-63
2021/06/27 09:23:54;;;;;;;1999.90;999.90;;;16.10;99.70;;;;;;6065694;23;20156;-61
2021/06/27 09:26:30;;;;;;;1999.90;999.90;;;16.10;99.10;;;;;;6004079;23;20240;-66
2021/06/27 09:28:58;;;;;;;1999.90;999.90;;;16.10;98.40;;;;;;6065837;23;20148;-63
2021/06/27 09:31:44;;;;;;;1999.90;999.90;;;16.10;97.60;;;;;;6041193;23;20232;-54
2021/06/27 09:34:15;;;;;;;1999.90;999.90;;;16.20;98.10;;;;;;6066561;23;20196;-54
2021/06/27 09:36:49;;;;;;;1999.90;999.90;;;16.30;98.70;;;;;;6066277;23;20137;-64
2021/06/27 09:39:16;;;;;;;1999.90;999.90;;;16.40;97.60;;;;;;6066332;23;20151;-69
2021/06/27 09:41:50;;;;;;;1999.90;999.90;;;16.40;96.60;;;;;;6067638;23;20394;-58
2021/06/27 09:44:18;;;;;;;1999.90;999.90;;;16.50;98.70;;;;;;6067528;23;20592;-65
2021/06/27 09:46:50;;;;;;;1999.90;999.90;;;16.60;98.20;;;;;;6067959;23;20176;-51
2021/06/27 09:49:26;;;;;;;1999.90;999.90;;;16.60;95.40;;;;;;6067221;23;20144;-55
2021/06/27 09:52:07;;;;;;;1999.90;999.90;;;16.70;96.70;;;;;;6067926;23;20152;-68
2021/06/27 09:54:35;;;;;;;1999.90;999.90;;;16.70;98.00;;;;;;6067688;23;20444;-66
2021/06/27 09:57:02;;;;;;;1999.90;999.90;;;16.80;97.30;;;;;;6067621;23;20176;-50
2021/06/27 09:59:47;;;;;;;1999.90;999.90;;;16.90;96.80;;;;;;6067662;23;20168;-53
2021/06/27 10:02:14;;;;;;;1999.90;999.90;;;16.90;96.30;;;;;;6067833;23;20522;-53
2021/06/27 10:04:41;;;;;;;1999.90;999.90;;;17.00;97.40;;;;;;6067577;23;20200;-66
2021/06/27 10:07:08;;;;;;;1999.90;999.90;;;17.00;96.30;;;;;;6068050;23;20235;-50
2021/06/27 10:09:41;;;;;;;1999.90;999.90;;;17.00;95.20;;;;;;6067365;23;20455;-62
2021/06/27 10:12:09;;;;;;;1999.90;999.90;;;16.90;95.10;;;;;;6067429;23;20165;-54
2021/06/27 10:14:52;;;;;;;1999.90;999.90;;;16.90;97.50;;;;;;6067864;23;20180;-64
2021/06/27 10:17:22;;;;;;;1999.90;999.90;;;16.90;98.00;;;;;;6067328;23;20453;-66
2021/06/27 10:19:50;;;;;;;1999.90;999.90;;;17.10;97.90;;;;;;6067520;23;20236;-53
2021/06/27 10:22:17;;;;;;;1999.90;999.90;;;17.10;95.70;;;;;;6067450;23;20153;-60
2021/06/27 10:24:44;;;;;;;1999.90;999.90;;;17.10;97.20;;;;;;6067141;23;20663;-58
2021/06/27 10:27:13;;;;;;;1999.90;999.90;;;17.20;95.70;;;;;;6067361;23;20149;-53
2021/06/27 10:29:47;;;;;;;1999.90;999.90;;;17.20;96.00;;;;;;6067372;23;20173;-50
2021/06/27 10:32:15;;;;;;;1999.90;999.90;;;17.30;96.40;;;;;;6067297;23;20517;-54
2021/06/27 10:34:42;;;;;;;1999.90;999.90;;;17.30;94.30;;;;;;6067465;23;20180;-55
2021/06/27 10:37:17;;;;;;;1999.90;999.90;;;17.30;96.50;;;;;;6067308;23;20218;-60
2021/06/27 10:40:06;;;;;;;1999.90;999.90;;;17.30;94.80;;;;;;6067133;23;20245;-52
2021/06/27 10:42:51;;;;;;;1999.90;999.90;;;17.40;93.70;;;;;;6067648;23;20133;-52
2021/06/27 10:45:20;;;;;;;1999.90;999.90;;;17.40;94.60;;;;;;6067109;23;20180;-54
2021/06/27 10:47:48;;;;;;;1999.90;999.90;;;17.40;95.80;;;;;;6067300;23;20155;-68
2021/06/27 10:50:17;;;;;;;1999.90;999.90;;;17.50;95.00;;;;;;6067382;23;20156;-53
2021/06/27 10:52:55;;;;;;;1999.90;999.90;;;17.60;93.70;;;;;;6066606;23;20552;-57
2021/06/27 10:55:47;;;;;;;1999.90;999.90;;;17.60;93.60;;;;;;6067206;23;20164;-57
2021/06/27 10:58:15;;;;;;;1999.90;999.90;;;17.50;94.40;;;;;;6066741;23;20152;-57
2021/06/27 11:00:56;;;;;;;1999.90;999.90;;;17.50;94.10;;;;;;6066836;23;20176;-66
2021/06/27 11:03:27;;;;;;;1999.90;999.90;;;17.60;93.50;;;;;;6067334;23;20219;-62
2021/06/27 11:06:01;;;;;;;1999.90;999.90;;;17.70;94.60;;;;;;6067038;23;20141;-53
2021/06/27 11:08:38;;;;;;;1999.90;999.90;;;17.80;93.20;;;;;;6067147;23;20144;-60
2021/06/27 11:11:10;;;;;;;1999.90;999.90;;;17.80;93.40;;;;;;6067052;23;20152;-60
2021/06/27 11:13:38;;;;;;;1999.90;999.90;;;17.90;91.90;;;;;;6066424;23;20188;-57
2021/06/27 11:16:07;;;;;;;1999.90;999.90;;;17.90;93.70;;;;;;6067028;23;20524;-67
2021/06/27 11:18:43;;;;;;;1999.90;999.90;;;18.00;95.00;;;;;;6067260;23;20494;-55
2021/06/27 11:21:14;;;;;;;1999.90;999.90;;;18.10;93.00;;;;;;6066881;23;20148;-56
2021/06/27 11:24:04;;;;;;;1999.90;999.90;;;18.20;91.90;;;;;;6067191;23;20149;-61
2021/06/27 11:26:48;;;;;;;1999.90;999.90;;;18.20;92.80;;;;;;6066795;23;20165;-66
2021/06/27 11:29:24;;;;;;;1999.90;999.90;;;18.20;91.00;;;;;;6067434;23;20144;-61
2021/06/27 11:31:53;;;;;;;1999.90;999.90;;;18.20;91.30;;;;;;6066792;23;20159;-53
2021/06/27 11:34:28;;;;;;;1999.90;999.90;;;18.20;91.80;;;;;;6066934;23;20566;-58
2021/06/27 11:37:19;;;;;;;1999.90;999.90;;;18.20;90.70;;;;;;6067017;23;20207;-65
2021/06/27 11:39:51;;;;;;;1999.90;999.90;;;18.10;90.90;;;;;;6066766;23;20601;-57
2021/06/27 11:42:30;;;;;;;1999.90;999.90;;;18.10;92.30;;;;;;6066554;23;20149;-59
2021/06/27 11:47:51;;;;;;;1999.90;999.90;;;18.20;91.50;;;;;;6066573;23;20156;-52
2021/06/27 11:50:28;;;;;;;1999.90;999.90;;;18.20;91.90;;;;;;6067214;23;20149;-64
2021/06/27 11:53:13;;;;;;;1999.90;999.90;;;18.30;91.90;;;;;;6066955;23;20218;-66
2021/06/27 11:56:03;;;;;;;1999.90;999.90;;;18.30;91.70;;;;;;6066562;23;20158;-59
2021/06/27 11:58:31;;;;;;;1999.90;999.90;;;18.20;90.30;;;;;;6066900;23;20535;-58
2021/06/27 12:01:04;;;;;;;1999.90;999.90;;;18.20;90.60;;;;;;6066168;23;20153;-54
2021/06/27 12:03:31;;;;;;;1999.90;999.90;;;18.30;92.70;;;;;;6040530;23;20188;-56
2021/06/27 12:06:01;;;;;;;1999.90;999.90;;;18.40;92.60;;;;;;6066750;23;20593;-65
2021/06/27 12:08:28;;;;;;;1999.90;999.90;;;18.40;91.20;;;;;;6067589;23;20235;-60
2021/06/27 12:11:00;;;;;;;1999.90;999.90;;;18.40;91.50;;;;;;6066683;23;20163;-52
2021/06/27 12:13:28;;;;;;;1999.90;999.90;;;18.40;91.00;;;;;;6066606;23;20198;-64
2021/06/27 12:15:57;;;;;;;1999.90;999.90;;;18.40;91.40;;;;;;6066805;23;20172;-55
2021/06/27 12:18:29;;;;;;;1999.90;999.90;;;18.40;90.30;;;;;;6066603;23;20157;-67
2021/06/27 12:21:07;;;;;;;1999.90;999.90;;;18.40;92.00;;;;;;6066652;23;20184;-56